Time;durP1;ratioP1;P1;durP2;ratioP2;P2;SDS_P1;SDS_P2;PMS_P1;PMS_P2;Temp;Humidity;BMP_temperature;BMP_pressure;BME280_temperature;BME280_humidity;BME280_pressure;Samples;Min_cycle;Max_cycle;Signal;HPM_P1;HPM_P2
2022/07/31 00:02:16;;;;;;;9.52;2.47;;;21.60;99.90;;;;;;5036396;28;25058;-71
2022/07/31 00:04:42;;;;;;;8.95;2.88;;;21.60;99.90;;;;;;5042176;28;25072;-72
2022/07/31 00:07:07;;;;;;;4.88;2.05;;;21.60;99.90;;;;;;5041878;28;25074;-72
2022/07/31 00:09:33;;;;;;;4.53;2.20;;;21.60;99.90;;;;;;5044122;28;25045;-71
2022/07/31 00:11:59;;;;;;;7.80;3.03;;;21.60;99.90;;;;;;5049646;28;25052;-71
2022/07/31 00:14:24;;;;;;;8.02;3.00;;;21.60;99.90;;;;;;5042558;28;25130;-72
2022/07/31 00:16:50;;;;;;;8.35;2.65;;;21.60;99.90;;;;;;5047311;28;25052;-72
2022/07/31 00:19:16;;;;;;;8.23;2.20;;;21.60;99.90;;;;;;5048034;28;25071;-72
2022/07/31 00:21:42;;;;;;;11.38;2.42;;;21.60;99.90;;;;;;5046188;28;25156;-72
2022/07/31 00:24:07;;;;;;;6.57;2.60;;;21.60;99.90;;;;;;5049092;28;25105;-71
2022/07/31 00:26:33;;;;;;;6.70;2.65;;;21.60;99.90;;;;;;5053446;28;25087;-73
2022/07/31 00:28:58;;;;;;;6.00;3.00;;;21.60;99.90;;;;;;5042598;28;25066;-73
2022/07/31 00:31:24;;;;;;;4.82;2.97;;;21.50;99.90;;;;;;5040898;28;25113;-70
2022/07/31 00:33:50;;;;;;;4.25;2.40;;;21.40;99.90;;;;;;5042918;28;25140;-72
2022/07/31 00:36:15;;;;;;;9.88;2.80;;;21.40;99.90;;;;;;5045789;28;25081;-72
2022/07/31 00:38:41;;;;;;;6.25;2.63;;;21.30;99.90;;;;;;5043749;28;25148;-71
2022/07/31 00:41:06;;;;;;;5.93;3.15;;;21.10;99.90;;;;;;5052974;28;25130;-71
2022/07/31 00:43:32;;;;;;;8.98;2.78;;;21.10;99.90;;;;;;5037096;28;25062;-70
2022/07/31 00:45:58;;;;;;;5.53;2.75;;;21.00;99.90;;;;;;5051903;28;25162;-72
2022/07/31 00:48:23;;;;;;;5.32;2.50;;;21.00;99.90;;;;;;5057398;28;25049;-73
2022/07/31 00:50:49;;;;;;;7.03;2.78;;;21.00;99.90;;;;;;5059150;28;25064;-70
2022/07/31 00:53:15;;;;;;;7.47;3.28;;;21.00;99.90;;;;;;5044483;28;25059;-70
2022/07/31 00:55:41;;;;;;;9.80;2.50;;;21.10;99.90;;;;;;5045213;28;25082;-71
2022/07/31 00:58:06;;;;;;;6.55;3.15;;;21.10;99.90;;;;;;5045981;28;25098;-72
2022/07/31 01:00:32;;;;;;;5.82;2.70;;;21.10;99.90;;;;;;5050944;28;25158;-72
2022/07/31 01:02:57;;;;;;;10.77;2.85;;;21.10;99.90;;;;;;5057496;28;25066;-72
2022/07/31 01:05:23;;;;;;;3.40;2.65;;;21.00;99.90;;;;;;5059388;28;25102;-71
2022/07/31 01:07:49;;;;;;;9.93;2.70;;;20.90;99.90;;;;;;5054554;28;25094;-72
2022/07/31 01:11:10;;;;;;;8.82;3.33;;;20.80;99.90;;;;;;5036928;28;25078;-72
2022/07/31 01:13:59;;;;;;;6.35;3.08;;;20.80;99.90;;;;;;4976429;28;25068;-71
2022/07/31 01:16:28;;;;;;;5.90;3.10;;;20.80;99.90;;;;;;5036812;28;25063;-72
2022/07/31 01:18:56;;;;;;;5.95;3.22;;;20.80;99.90;;;;;;5033150;28;25094;-72
2022/07/31 01:21:48;;;;;;;6.18;3.00;;;20.80;99.90;;;;;;5032305;28;25055;-72
2022/07/31 01:24:28;;;;;;;10.55;2.83;;;20.70;99.90;;;;;;5041147;28;25061;-72
2022/07/31 01:27:02;;;;;;;7.05;2.88;;;20.70;99.90;;;;;;5039130;28;25065;-71
2022/07/31 01:29:52;;;;;;;7.05;3.22;;;20.70;99.90;;;;;;5042301;28;25102;-73
2022/07/31 01:32:25;;;;;;;8.27;3.13;;;20.80;99.90;;;;;;5050092;28;25097;-71
2022/07/31 01:34:59;;;;;;;6.85;2.97;;;20.80;99.90;;;;;;5052614;28;25071;-73
2022/07/31 01:37:54;;;;;;;10.95;3.88;;;20.80;99.90;;;;;;5044583;28;25109;-72
2022/07/31 01:40:25;;;;;;;16.38;6.05;;;20.80;99.90;;;;;;5027561;28;25055;-71
2022/07/31 01:42:55;;;;;;;14.85;8.13;;;20.90;99.90;;;;;;5034616;28;25051;-72
2022/07/31 01:45:22;;;;;;;19.05;11.77;;;20.80;99.90;;;;;;5042730;28;25061;-73
2022/07/31 01:47:48;;;;;;;22.40;14.70;;;20.80;99.90;;;;;;5054445;28;25161;-73
2022/07/31 01:50:14;;;;;;;22.48;15.75;;;20.70;99.90;;;;;;5040634;28;25070;-70
2022/07/31 01:52:42;;;;;;;24.80;16.05;;;20.70;99.90;;;;;;5039122;28;25075;-72
2022/07/31 01:55:09;;;;;;;19.92;14.88;;;20.70;99.90;;;;;;5043614;28;25114;-71
2022/07/31 01:57:37;;;;;;;21.73;15.98;;;20.70;99.90;;;;;;5041553;28;25083;-72
2022/07/31 02:00:06;;;;;;;24.38;15.65;;;20.70;99.90;;;;;;5033872;28;25101;-74
2022/07/31 02:02:34;;;;;;;20.88;13.20;;;20.60;99.90;;;;;;5032777;28;25054;-71
2022/07/31 02:05:02;;;;;;;16.23;12.45;;;20.50;99.90;;;;;;5029326;28;25165;-71
2022/07/31 02:07:28;;;;;;;17.58;11.40;;;20.50;99.90;;;;;;5032477;28;25081;-72
2022/07/31 02:09:55;;;;;;;14.38;10.27;;;20.60;99.90;;;;;;5030260;28;25054;-73
2022/07/31 02:12:22;;;;;;;13.70;9.80;;;20.50;99.90;;;;;;5036188;28;25136;-71
2022/07/31 02:14:49;;;;;;;14.43;7.82;;;20.60;99.90;;;;;;5035350;28;25069;-71
2022/07/31 02:17:16;;;;;;;12.70;7.35;;;20.40;99.90;;;;;;5030684;28;25056;-75
2022/07/31 02:19:42;;;;;;;8.55;7.07;;;20.40;99.90;;;;;;5037593;28;25057;-72
2022/07/31 02:22:07;;;;;;;13.55;7.15;;;20.30;99.90;;;;;;5035866;28;25075;-72
2022/07/31 02:24:33;;;;;;;12.05;6.72;;;20.30;99.90;;;;;;5041343;28;25154;-73
2022/07/31 02:27:01;;;;;;;15.27;7.15;;;20.40;99.90;;;;;;5036843;28;25071;-72
2022/07/31 02:29:29;;;;;;;9.32;6.32;;;20.30;99.90;;;;;;5046195;28;25062;-72
2022/07/31 02:31:56;;;;;;;11.02;6.82;;;20.30;99.90;;;;;;5044774;28;25068;-72
2022/07/31 02:34:23;;;;;;;14.70;7.60;;;20.40;99.90;;;;;;5038019;28;25043;-72
2022/07/31 02:36:50;;;;;;;13.80;9.60;;;20.40;99.90;;;;;;5035686;28;25139;-72
2022/07/31 02:39:17;;;;;;;16.90;10.05;;;20.40;99.90;;;;;;5041230;28;25075;-72
2022/07/31 02:41:43;;;;;;;14.88;9.45;;;20.40;99.90;;;;;;5040377;28;25081;-72
2022/07/31 02:44:13;;;;;;;10.80;8.25;;;20.30;99.90;;;;;;5044752;28;25058;-72
2022/07/31 02:46:41;;;;;;;14.15;8.23;;;20.30;99.90;;;;;;5044856;28;25070;-72
2022/07/31 02:49:08;;;;;;;9.85;7.88;;;20.40;99.90;;;;;;5043173;28;25134;-72
2022/07/31 02:51:33;;;;;;;9.02;6.72;;;20.40;99.90;;;;;;5043535;28;25054;-72
2022/07/31 02:53:59;;;;;;;10.10;6.75;;;20.30;99.90;;;;;;5042603;28;25079;-72
2022/07/31 02:56:27;;;;;;;13.10;6.38;;;20.40;99.90;;;;;;5036122;28;24948;-72
2022/07/31 02:58:53;;;;;;;9.48;5.88;;;20.40;99.90;;;;;;5039954;28;25068;-73
2022/07/31 03:01:19;;;;;;;10.63;4.93;;;20.30;99.90;;;;;;5039933;28;25153;-73
2022/07/31 03:03:44;;;;;;;5.07;4.22;;;20.30;99.90;;;;;;5038833;28;25073;-73
2022/07/31 03:06:10;;;;;;;8.52;4.68;;;20.30;99.90;;;;;;5045190;28;25099;-72
2022/07/31 03:08:35;;;;;;;7.18;4.20;;;20.30;99.90;;;;;;5039182;28;25055;-73
2022/07/31 03:11:01;;;;;;;6.90;4.35;;;20.40;99.90;;;;;;5037786;28;25146;-72
2022/07/31 03:13:29;;;;;;;9.73;5.13;;;20.40;99.90;;;;;;5035521;28;25062;-73
2022/07/31 03:15:55;;;;;;;6.53;4.65;;;20.40;99.90;;;;;;5035169;28;25151;-72
2022/07/31 03:18:21;;;;;;;7.97;4.38;;;20.30;99.90;;;;;;5001600;28;1049437;-73
2022/07/31 03:20:51;;;;;;;8.30;4.55;;;20.30;99.90;;;;;;5053445;28;25122;-74
2022/07/31 03:23:20;;;;;;;9.15;5.07;;;20.30;99.90;;;;;;5039845;28;25068;-73
2022/07/31 03:25:48;;;;;;;9.95;4.95;;;20.10;99.90;;;;;;5043304;28;25071;-74
2022/07/31 03:28:13;;;;;;;9.63;4.93;;;20.00;99.90;;;;;;5042403;28;25057;-73
2022/07/31 03:30:39;;;;;;;7.60;4.20;;;20.10;99.90;;;;;;5049868;28;25107;-73
2022/07/31 03:33:05;;;;;;;8.85;5.68;;;20.10;99.90;;;;;;5041589;28;25105;-72
2022/07/31 03:35:32;;;;;;;9.80;5.57;;;20.10;99.90;;;;;;5047723;28;25060;-74
2022/07/31 03:37:58;;;;;;;9.40;5.82;;;20.10;99.90;;;;;;5046499;28;25081;-71
2022/07/31 03:40:24;;;;;;;10.38;6.22;;;20.10;99.90;;;;;;5038671;28;25141;-72
2022/07/31 03:42:52;;;;;;;11.90;6.78;;;20.10;99.90;;;;;;5040328;28;25078;-71
2022/07/31 03:45:19;;;;;;;8.90;6.30;;;20.00;99.90;;;;;;5041683;28;25077;-73
2022/07/31 03:47:45;;;;;;;10.85;7.13;;;20.00;99.90;;;;;;5033740;28;25077;-72
2022/07/31 03:50:11;;;;;;;10.27;6.60;;;20.00;99.90;;;;;;5034178;28;25171;-73
2022/07/31 03:52:38;;;;;;;10.95;8.25;;;20.10;99.90;;;;;;5034547;28;25052;-74
2022/07/31 03:55:05;;;;;;;15.05;8.13;;;20.10;99.90;;;;;;5048309;28;25081;-73
2022/07/31 03:57:32;;;;;;;13.55;8.57;;;20.00;99.90;;;;;;5036027;28;25065;-72
2022/07/31 04:00:01;;;;;;;11.50;9.00;;;20.10;99.90;;;;;;5040447;28;25219;-73
2022/07/31 04:02:27;;;;;;;11.60;7.97;;;20.00;99.90;;;;;;5032207;28;25074;-72
2022/07/31 04:04:54;;;;;;;14.55;9.73;;;20.00;99.90;;;;;;5047135;28;25151;-71
2022/07/31 04:07:19;;;;;;;13.25;9.27;;;20.10;99.90;;;;;;5039058;28;25075;-72
2022/07/31 04:09:45;;;;;;;11.68;8.90;;;20.10;99.90;;;;;;5037288;28;25150;-74
2022/07/31 04:12:11;;;;;;;11.02;9.35;;;20.10;99.90;;;;;;5045130;28;25148;-74
2022/07/31 04:14:37;;;;;;;12.75;9.77;;;20.10;99.90;;;;;;5051516;28;25061;-72
2022/07/31 04:17:04;;;;;;;15.50;10.77;;;20.10;99.90;;;;;;5052458;28;25059;-72
2022/07/31 04:19:29;;;;;;;12.30;9.98;;;20.00;99.90;;;;;;5032122;28;25074;-74
2022/07/31 04:21:56;;;;;;;17.20;10.02;;;20.00;99.90;;;;;;5045829;28;25066;-72
2022/07/31 04:24:22;;;;;;;15.27;10.40;;;19.90;99.90;;;;;;5045249;28;25148;-74
2022/07/31 04:26:48;;;;;;;14.75;10.50;;;20.00;99.90;;;;;;5044688;28;25064;-73
2022/07/31 04:29:14;;;;;;;15.68;11.50;;;20.00;99.90;;;;;;5048529;28;25121;-75
2022/07/31 04:31:39;;;;;;;16.20;11.07;;;19.90;99.90;;;;;;5041189;28;25062;-72
2022/07/31 04:34:05;;;;;;;13.35;11.13;;;19.90;99.90;;;;;;5050602;28;25075;-72
2022/07/31 04:36:30;;;;;;;16.88;10.35;;;20.00;99.90;;;;;;5038781;28;25136;-72
2022/07/31 04:39:00;;;;;;;15.23;10.55;;;20.00;99.90;;;;;;5040263;28;25141;-74
2022/07/31 04:41:26;;;;;;;16.30;11.45;;;20.00;99.90;;;;;;5038560;28;25080;-73
2022/07/31 04:43:51;;;;;;;13.63;10.20;;;20.10;99.90;;;;;;5040240;28;25071;-73
2022/07/31 04:46:17;;;;;;;17.83;10.20;;;20.10;99.90;;;;;;5040141;28;25087;-72
2022/07/31 04:48:42;;;;;;;15.80;10.88;;;20.10;99.90;;;;;;5044863;28;25119;-72
2022/07/31 04:51:14;;;;;;;15.40;11.13;;;20.10;99.90;;;;;;5051294;28;25069;-72
2022/07/31 04:53:40;;;;;;;17.45;10.93;;;20.20;99.90;;;;;;5037576;28;25075;-73
2022/07/31 04:58:49;;;;;;;19.23;11.63;;;20.10;99.90;;;;;;5045907;28;25129;-73
2022/07/31 05:01:15;;;;;;;18.85;12.38;;;20.10;99.90;;;;;;5057683;28;25060;-72
2022/07/31 05:03:40;;;;;;;18.85;12.48;;;20.20;99.90;;;;;;5043959;28;25072;-72
2022/07/31 05:06:11;;;;;;;20.20;12.20;;;20.20;99.90;;;;;;5039966;28;25100;-73
2022/07/31 05:08:37;;;;;;;17.42;12.00;;;20.20;99.90;;;;;;5053768;28;25066;-73
2022/07/31 05:11:21;;;;;;;19.55;10.43;;;20.20;99.90;;;;;;5038395;28;25072;-74
2022/07/31 05:13:51;;;;;;;19.58;13.13;;;20.30;99.90;;;;;;5051860;28;25074;-74
2022/07/31 05:16:18;;;;;;;21.52;13.18;;;20.30;99.90;;;;;;5051977;28;25085;-73
2022/07/31 05:18:46;;;;;;;23.67;13.68;;;20.30;99.90;;;;;;5046130;28;25070;-75
2022/07/31 05:21:13;;;;;;;30.38;15.13;;;20.30;99.90;;;;;;5050615;28;25104;-74
2022/07/31 05:23:40;;;;;;;20.55;13.27;;;20.10;99.90;;;;;;5040955;28;25057;-73
2022/07/31 05:26:07;;;;;;;23.40;14.93;;;20.20;99.90;;;;;;5053329;28;25079;-72
2022/07/31 05:28:32;;;;;;;24.80;15.38;;;20.10;99.90;;;;;;5059353;28;25076;-76
2022/07/31 05:30:58;;;;;;;24.67;16.45;;;20.20;99.90;;;;;;5041420;28;25066;-75
2022/07/31 05:33:24;;;;;;;31.40;16.88;;;20.20;99.90;;;;;;5047589;28;25129;-72
2022/07/31 05:35:49;;;;;;;33.63;18.15;;;20.20;99.90;;;;;;5049362;28;25064;-72
2022/07/31 05:38:15;;;;;;;33.28;17.95;;;20.40;99.90;;;;;;5040520;28;25090;-76
2022/07/31 05:40:41;;;;;;;29.40;17.25;;;20.40;99.90;;;;;;5041030;28;25145;-74
2022/07/31 05:43:07;;;;;;;29.98;18.70;;;20.30;99.90;;;;;;5036890;28;25054;-73
2022/07/31 05:45:32;;;;;;;32.17;18.13;;;20.40;99.90;;;;;;5044081;28;25076;-73
2022/07/31 05:47:58;;;;;;;36.30;18.20;;;20.50;99.90;;;;;;5044195;28;25099;-73
2022/07/31 05:50:23;;;;;;;37.83;21.30;;;20.50;99.90;;;;;;5054018;28;25098;-71
2022/07/31 05:52:49;;;;;;;37.08;19.90;;;20.40;99.90;;;;;;5037954;28;25104;-73
2022/07/31 05:55:15;;;;;;;41.80;22.38;;;20.50;99.90;;;;;;5043970;28;25140;-75
2022/07/31 05:57:41;;;;;;;35.65;20.98;;;20.40;99.90;;;;;;5044961;28;25066;-74
2022/07/31 06:00:07;;;;;;;40.00;21.25;;;20.40;99.90;;;;;;5041386;28;25064;-73
2022/07/31 06:02:33;;;;;;;42.38;23.20;;;20.40;99.90;;;;;;5039401;28;25092;-75
2022/07/31 06:04:59;;;;;;;48.20;23.88;;;20.40;99.90;;;;;;5034939;28;25114;-74
2022/07/31 06:07:24;;;;;;;44.15;23.33;;;20.40;99.90;;;;;;5040056;28;25078;-74
2022/07/31 06:09:50;;;;;;;42.55;22.52;;;20.40;99.90;;;;;;5035121;28;25064;-77
2022/07/31 06:12:15;;;;;;;40.08;22.40;;;20.50;99.90;;;;;;5043671;28;25009;-74
2022/07/31 06:14:41;;;;;;;45.95;22.00;;;20.40;99.90;;;;;;5033717;28;25151;-76
2022/07/31 06:17:07;;;;;;;38.90;21.05;;;20.50;99.90;;;;;;5043430;28;25065;-75
2022/07/31 06:19:33;;;;;;;38.30;21.40;;;20.50;99.90;;;;;;5040117;28;25088;-74
2022/07/31 06:21:59;;;;;;;33.60;20.70;;;20.60;99.90;;;;;;5050224;28;25074;-74
2022/07/31 06:24:25;;;;;;;32.50;20.08;;;20.70;99.90;;;;;;5038277;28;25084;-75
2022/07/31 06:26:55;;;;;;;34.92;19.83;;;20.70;99.90;;;;;;5045828;28;25118;-73
2022/07/31 06:29:21;;;;;;;32.05;21.25;;;20.70;99.90;;;;;;5040399;28;25086;-74
2022/07/31 06:31:47;;;;;;;30.83;18.98;;;20.80;99.90;;;;;;5040064;28;25048;-74
2022/07/31 06:34:12;;;;;;;32.50;20.58;;;20.90;99.90;;;;;;5043388;28;25077;-73
2022/07/31 06:36:38;;;;;;;35.08;20.08;;;20.90;99.90;;;;;;5043038;28;25117;-74
2022/07/31 06:39:04;;;;;;;31.48;19.75;;;21.00;99.90;;;;;;5052804;28;25128;-73
2022/07/31 06:41:48;;;;;;;37.97;21.15;;;21.00;99.90;;;;;;5035957;28;25068;-74
2022/07/31 06:44:15;;;;;;;32.65;20.63;;;20.90;99.90;;;;;;5036282;28;25079;-76
2022/07/31 06:46:41;;;;;;;33.90;21.65;;;20.90;99.90;;;;;;5036696;28;25052;-78
2022/07/31 06:49:07;;;;;;;35.33;21.85;;;20.90;99.90;;;;;;5035010;28;25096;-74
2022/07/31 06:51:33;;;;;;;38.25;22.92;;;21.00;99.90;;;;;;5037717;28;25101;-74
2022/07/31 06:54:00;;;;;;;30.80;22.33;;;20.80;99.90;;;;;;5032609;28;25086;-75
2022/07/31 06:56:26;;;;;;;34.15;23.52;;;20.90;99.90;;;;;;5039111;28;25053;-75
2022/07/31 06:58:52;;;;;;;33.17;22.05;;;20.90;99.90;;;;;;5031517;28;25059;-74
2022/07/31 07:01:17;;;;;;;39.50;22.52;;;21.10;99.90;;;;;;5039231;28;25082;-75
2022/07/31 07:03:43;;;;;;;36.10;23.10;;;21.20;99.90;;;;;;5036774;28;25126;-77
2022/07/31 07:06:08;;;;;;;36.80;24.75;;;21.20;99.90;;;;;;5034193;28;25073;-77
2022/07/31 07:08:34;;;;;;;30.27;22.10;;;21.10;99.90;;;;;;5040364;28;25063;-76
2022/07/31 07:10:59;;;;;;;33.15;22.80;;;21.10;99.90;;;;;;5040517;28;25073;-75
2022/07/31 07:13:25;;;;;;;34.78;23.65;;;21.20;99.90;;;;;;5035903;28;25100;-75
2022/07/31 07:15:51;;;;;;;28.92;22.13;;;21.20;99.90;;;;;;5042976;28;25095;-72
2022/07/31 07:18:17;;;;;;;33.72;23.70;;;21.20;99.90;;;;;;5042939;28;25068;-75
2022/07/31 07:20:44;;;;;;;31.67;23.15;;;21.10;99.90;;;;;;5039511;28;25147;-73
2022/07/31 07:23:10;;;;;;;39.90;24.65;;;21.30;99.90;;;;;;5046629;28;25078;-75
2022/07/31 07:25:36;;;;;;;34.10;23.08;;;21.20;99.90;;;;;;5049458;28;25062;-77
2022/07/31 07:28:02;;;;;;;31.70;23.10;;;21.30;99.90;;;;;;5052003;28;25162;-76
2022/07/31 07:30:27;;;;;;;34.05;21.00;;;21.30;99.90;;;;;;5043573;28;25069;-75
2022/07/31 07:32:53;;;;;;;31.85;21.50;;;21.30;99.90;;;;;;5037695;28;25053;-76
2022/07/31 07:35:20;;;;;;;30.52;21.27;;;21.40;99.90;;;;;;5042783;28;25105;-75
2022/07/31 07:37:46;;;;;;;34.90;24.33;;;21.40;99.90;;;;;;5039774;28;25073;-75
2022/07/31 07:40:13;;;;;;;31.88;21.58;;;21.50;99.90;;;;;;5038211;28;25083;-77
2022/07/31 07:42:38;;;;;;;30.75;22.55;;;21.40;99.90;;;;;;5039778;28;25073;-75
2022/07/31 07:45:04;;;;;;;31.10;21.67;;;21.50;99.90;;;;;;5036652;28;25070;-74
2022/07/31 07:47:30;;;;;;;30.77;21.92;;;21.60;99.90;;;;;;5047628;28;25103;-74
2022/07/31 07:49:55;;;;;;;35.53;24.63;;;21.60;99.90;;;;;;5048906;28;25154;-76
2022/07/31 07:52:21;;;;;;;34.63;23.38;;;21.40;99.90;;;;;;5032193;28;25135;-75
2022/07/31 07:54:47;;;;;;;37.97;23.20;;;21.30;99.90;;;;;;5030306;28;25066;-74
2022/07/31 07:57:17;;;;;;;37.55;23.45;;;21.30;99.90;;;;;;5039975;28;25047;-74
2022/07/31 07:59:43;;;;;;;36.95;23.70;;;21.40;99.90;;;;;;5038869;28;25133;-76
2022/07/31 08:02:09;;;;;;;38.05;23.13;;;21.40;99.90;;;;;;5051360;28;25053;-77
2022/07/31 08:04:34;;;;;;;35.35;23.35;;;21.40;99.90;;;;;;5042833;28;25087;-74
2022/07/31 08:07:00;;;;;;;37.10;23.58;;;21.40;99.90;;;;;;5058350;28;25087;-74
2022/07/31 08:09:26;;;;;;;39.75;23.90;;;21.40;99.90;;;;;;5045629;28;25085;-74
2022/07/31 08:11:51;;;;;;;33.75;23.95;;;21.50;99.90;;;;;;5042528;28;25062;-77
2022/07/31 08:14:17;;;;;;;34.55;24.30;;;21.50;99.90;;;;;;5040179;28;25055;-75
2022/07/31 08:16:42;;;;;;;33.70;23.73;;;21.60;99.90;;;;;;5040739;28;25087;-77
2022/07/31 08:19:08;;;;;;;31.42;23.70;;;21.80;99.90;;;;;;5034521;28;25065;-76
2022/07/31 08:21:34;;;;;;;34.53;23.48;;;21.80;99.90;;;;;;5033049;28;25061;-75
2022/07/31 08:24:00;;;;;;;31.83;23.73;;;21.70;99.90;;;;;;5033372;28;25104;-76
2022/07/31 08:26:26;;;;;;;29.05;23.33;;;21.80;99.90;;;;;;5040161;28;25144;-76
2022/07/31 08:28:51;;;;;;;33.08;23.17;;;21.80;99.90;;;;;;5034518;28;25057;-75
2022/07/31 08:31:18;;;;;;;29.45;22.38;;;21.80;99.90;;;;;;5035865;28;25053;-75
2022/07/31 08:33:44;;;;;;;26.55;21.67;;;21.80;99.90;;;;;;5040365;28;25065;-76
2022/07/31 08:36:09;;;;;;;30.60;21.40;;;21.90;99.90;;;;;;5037645;28;25061;-76
2022/07/31 08:38:37;;;;;;;26.13;19.58;;;21.80;99.90;;;;;;5045115;28;25075;-74
2022/07/31 08:41:03;;;;;;;33.33;21.02;;;21.80;99.90;;;;;;5039783;28;25068;-74
2022/07/31 08:43:29;;;;;;;23.42;19.45;;;21.60;99.90;;;;;;5042826;28;25062;-74
2022/07/31 08:45:57;;;;;;;24.40;17.58;;;21.60;99.90;;;;;;5050427;28;25057;-74
2022/07/31 08:48:24;;;;;;;25.38;17.20;;;21.60;99.90;;;;;;5042150;28;25134;-77
2022/07/31 08:50:52;;;;;;;23.80;16.88;;;21.60;99.90;;;;;;5047142;28;25095;-75
2022/07/31 08:53:21;;;;;;;20.80;14.77;;;21.60;99.90;;;;;;5037594;28;25063;-74
2022/07/31 08:55:47;;;;;;;20.25;16.15;;;21.70;99.90;;;;;;5039437;28;25137;-76
2022/07/31 08:58:13;;;;;;;17.58;15.55;;;21.70;99.90;;;;;;5046041;28;25069;-77
2022/07/31 09:00:41;;;;;;;24.10;15.43;;;21.60;99.90;;;;;;5054461;28;25054;-77
2022/07/31 09:03:07;;;;;;;21.95;15.07;;;21.50;99.90;;;;;;5041937;28;25127;-78
2022/07/31 09:05:37;;;;;;;19.27;13.82;;;21.50;99.90;;;;;;5057135;28;25089;-75
2022/07/31 09:08:03;;;;;;;22.95;14.05;;;21.60;99.90;;;;;;5063182;28;25056;-75
2022/07/31 09:10:28;;;;;;;21.52;15.77;;;21.60;99.90;;;;;;5059697;28;25102;-77
2022/07/31 09:12:55;;;;;;;21.55;16.42;;;21.60;99.90;;;;;;5065258;28;25081;-77
2022/07/31 09:15:24;;;;;;;17.77;15.93;;;21.60;99.90;;;;;;5056215;28;25076;-77
2022/07/31 09:17:50;;;;;;;22.13;14.80;;;21.70;99.90;;;;;;5041909;28;25051;-75
2022/07/31 09:20:19;;;;;;;24.65;15.68;;;21.90;99.90;;;;;;5051364;28;25058;-77
2022/07/31 09:22:45;;;;;;;21.73;15.90;;;22.00;99.90;;;;;;5046267;28;25098;-75
2022/07/31 09:25:18;;;;;;;22.67;15.15;;;22.00;99.90;;;;;;5048130;28;25107;-73
2022/07/31 09:27:44;;;;;;;;;;;22.00;99.90;;;;;;5042758;28;25049;-75
2022/07/31 09:30:10;;;;;;;17.88;13.80;;;22.10;99.90;;;;;;5041468;28;25093;-75
2022/07/31 09:32:36;;;;;;;17.35;14.45;;;22.10;99.90;;;;;;5042360;28;24802;-76
2022/07/31 09:35:06;;;;;;;19.00;12.82;;;22.20;99.90;;;;;;5047721;28;25193;-74
2022/07/31 09:37:32;;;;;;;16.52;12.70;;;22.20;99.90;;;;;;5040501;28;25055;-75
2022/07/31 09:39:58;;;;;;;17.98;13.25;;;22.30;99.90;;;;;;5044863;28;25076;-78
2022/07/31 09:42:36;;;;;;;19.38;12.73;;;22.40;99.90;;;;;;5038208;28;25056;-74
2022/07/31 09:45:02;;;;;;;16.55;13.45;;;22.30;99.90;;;;;;5042293;28;25112;-75
2022/07/31 09:47:30;;;;;;;16.65;12.85;;;22.20;99.90;;;;;;5036289;28;25172;-75
2022/07/31 09:50:01;;;;;;;14.75;12.93;;;22.20;99.90;;;;;;5032282;28;25058;-74
2022/07/31 09:52:29;;;;;;;14.50;11.63;;;22.30;99.90;;;;;;5032734;28;25096;-74
2022/07/31 09:55:14;;;;;;;16.38;12.10;;;22.30;99.90;;;;;;5034691;28;25056;-76
2022/07/31 09:57:51;;;;;;;18.02;12.98;;;22.20;99.90;;;;;;5040020;28;25073;-73
2022/07/31 10:00:17;;;;;;;17.38;14.18;;;22.30;99.90;;;;;;5042918;28;25072;-75
2022/07/31 10:02:43;;;;;;;19.92;14.77;;;22.20;99.90;;;;;;5042275;28;25066;-77
2022/07/31 10:05:10;;;;;;;21.73;14.57;;;22.20;99.90;;;;;;5041244;28;25047;-76
2022/07/31 10:07:37;;;;;;;18.40;14.70;;;21.90;99.90;;;;;;5053851;28;25077;-75
2022/07/31 10:10:06;;;;;;;19.45;13.23;;;21.80;99.90;;;;;;5049267;28;25069;-72
2022/07/31 10:12:34;;;;;;;18.42;13.57;;;21.90;99.90;;;;;;5043687;28;25058;-70
2022/07/31 10:15:05;;;;;;;23.83;13.85;;;22.20;99.90;;;;;;5042481;28;25130;-71
2022/07/31 10:17:35;;;;;;;17.97;13.60;;;22.20;99.90;;;;;;5031996;28;25131;-72
2022/07/31 10:20:03;;;;;;;16.90;12.43;;;22.10;99.90;;;;;;5042050;28;25105;-76
2022/07/31 10:22:37;;;;;;;15.25;12.30;;;22.20;99.90;;;;;;5043961;28;25094;-77
2022/07/31 10:25:06;;;;;;;15.88;11.27;;;22.00;99.90;;;;;;5034239;28;25061;-74
2022/07/31 10:27:34;;;;;;;18.42;12.32;;;22.00;99.90;;;;;;5041980;28;25054;-74
2022/07/31 10:30:02;;;;;;;21.45;13.15;;;22.10;99.90;;;;;;5041372;28;25059;-75
2022/07/31 10:32:28;;;;;;;17.80;11.77;;;22.20;99.90;;;;;;5046981;28;25043;-74
2022/07/31 10:34:53;;;;;;;18.60;12.07;;;22.20;99.90;;;;;;5040122;28;25063;-75
2022/07/31 10:37:25;;;;;;;15.93;10.95;;;22.50;99.90;;;;;;5040914;28;25066;-74
2022/07/31 10:40:02;;;;;;;13.90;10.67;;;22.60;99.90;;;;;;5052408;28;25081;-75
2022/07/31 10:43:00;;;;;;;11.48;9.68;;;22.80;99.90;;;;;;5057888;28;25054;-74
2022/07/31 10:45:28;;;;;;;15.50;8.75;;;22.70;99.90;;;;;;5031962;28;25068;-75
2022/07/31 10:47:58;;;;;;;10.02;8.25;;;22.60;99.90;;;;;;5043080;28;25122;-74
2022/07/31 10:50:32;;;;;;;15.00;9.68;;;22.50;99.90;;;;;;5043097;28;25066;-73
2022/07/31 10:53:13;;;;;;;15.75;11.02;;;22.50;99.90;;;;;;5066948;28;25063;-76
2022/07/31 10:55:38;;;;;;;17.45;9.75;;;22.40;99.90;;;;;;5040923;28;25049;-77
2022/07/31 10:58:12;;;;;;;11.75;9.40;;;22.40;99.90;;;;;;5052596;28;25084;-78
2022/07/31 11:00:39;;;;;;;13.32;9.23;;;22.30;99.90;;;;;;5047401;28;25044;-74
2022/07/31 11:03:16;;;;;;;12.50;10.88;;;22.30;99.90;;;;;;5040693;28;25069;-76
2022/07/31 11:05:53;;;;;;;17.67;10.77;;;22.40;99.90;;;;;;5047066;28;25144;-75
2022/07/31 11:08:18;;;;;;;17.67;10.40;;;22.50;99.90;;;;;;5044048;28;25073;-75
2022/07/31 11:10:55;;;;;;;13.70;11.40;;;22.40;99.90;;;;;;5046661;28;25077;-77
2022/07/31 11:13:24;;;;;;;17.35;12.40;;;22.40;99.90;;;;;;5037994;28;25074;-75
2022/07/31 11:15:51;;;;;;;16.08;10.88;;;22.40;99.90;;;;;;5050762;28;25049;-75
2022/07/31 11:18:23;;;;;;;14.90;12.25;;;22.60;99.90;;;;;;5052352;28;25064;-76
2022/07/31 11:21:00;;;;;;;17.55;11.00;;;22.70;99.90;;;;;;5043759;28;25098;-73
2022/07/31 11:23:30;;;;;;;15.40;11.02;;;22.70;99.90;;;;;;5042447;28;25062;-75
2022/07/31 11:25:59;;;;;;;17.13;11.30;;;22.70;99.90;;;;;;5054610;28;25070;-75
2022/07/31 11:28:25;;;;;;;14.82;10.85;;;22.70;99.90;;;;;;5047993;28;25056;-77
2022/07/31 11:30:58;;;;;;;15.77;11.02;;;22.60;99.90;;;;;;5065942;28;25072;-74
2022/07/31 11:33:43;;;;;;;13.50;10.82;;;22.60;99.90;;;;;;5055967;28;25093;-76
2022/07/31 11:36:09;;;;;;;12.40;9.32;;;22.70;99.90;;;;;;5063554;28;25090;-75
2022/07/31 11:38:35;;;;;;;12.82;8.48;;;22.80;99.90;;;;;;5064731;28;25070;-74
2022/07/31 11:41:02;;;;;;;14.00;8.18;;;22.80;99.90;;;;;;5060560;28;25056;-76
2022/07/31 11:43:28;;;;;;;13.18;8.38;;;22.90;99.90;;;;;;5060357;28;25060;-77
2022/07/31 11:45:54;;;;;;;15.05;9.20;;;23.00;99.90;;;;;;5065249;28;25146;-77
2022/07/31 11:48:21;;;;;;;11.02;8.32;;;23.10;99.90;;;;;;5048742;28;25100;-75
2022/07/31 11:50:48;;;;;;;13.68;8.50;;;23.10;99.90;;;;;;5045418;28;25074;-77
2022/07/31 11:53:15;;;;;;;13.55;8.23;;;23.20;99.90;;;;;;5048571;28;25068;-76
2022/07/31 11:55:47;;;;;;;14.40;8.20;;;23.20;99.90;;;;;;5044809;28;25069;-75
2022/07/31 11:58:15;;;;;;;12.40;7.80;;;23.10;99.90;;;;;;5049585;28;25128;-78
2022/07/31 12:00:47;;;;;;;11.90;8.55;;;23.20;99.90;;;;;;5040146;28;25102;-76
2022/07/31 12:03:14;;;;;;;13.18;8.27;;;23.10;99.90;;;;;;5043707;28;25170;-78
2022/07/31 12:05:47;;;;;;;16.17;8.38;;;23.10;99.90;;;;;;5037484;28;25067;-77
2022/07/31 12:08:14;;;;;;;16.70;9.30;;;23.10;99.90;;;;;;5042709;28;25085;-77
2022/07/31 12:10:40;;;;;;;10.25;7.60;;;23.10;99.90;;;;;;5040135;28;25116;-75
2022/07/31 12:13:11;;;;;;;11.25;7.60;;;23.20;99.90;;;;;;5043294;28;25055;-76
2022/07/31 12:15:36;;;;;;;10.50;7.45;;;23.20;99.90;;;;;;5045103;28;25062;-73
2022/07/31 12:18:04;;;;;;;14.13;7.35;;;23.20;99.90;;;;;;5042085;28;25067;-74
2022/07/31 12:20:30;;;;;;;11.80;6.55;;;23.40;99.90;;;;;;5040903;28;25067;-77
2022/07/31 12:23:00;;;;;;;9.32;6.65;;;23.80;99.90;;;;;;5041076;28;25138;-77
2022/07/31 12:25:26;;;;;;;10.77;5.78;;;23.90;99.90;;;;;;5037198;28;25073;-75
2022/07/31 12:27:53;;;;;;;12.20;6.20;;;23.90;99.90;;;;;;5050378;28;25157;-75
2022/07/31 12:30:21;;;;;;;10.00;6.45;;;23.80;99.90;;;;;;5033762;28;25079;-75
2022/07/31 12:32:47;;;;;;;13.13;7.03;;;23.60;99.90;;;;;;5041379;28;25080;-73
2022/07/31 12:35:12;;;;;;;9.82;6.68;;;23.40;99.90;;;;;;5033453;28;25048;-74
2022/07/31 12:37:43;;;;;;;15.98;6.05;;;23.30;99.90;;;;;;5040598;28;25070;-77
2022/07/31 12:40:19;;;;;;;10.63;5.17;;;23.20;99.90;;;;;;5041907;28;25103;-75